sensor_id;sensor_type;location;lat;lon;timestamp;pressure;altitude;pressure_sealevel;temperature;humidity
74524;BME280;63074;44.696;10.358;2022-12-24T00:02:27;99960.69;;;7.73;100.00
74524;BME280;63074;44.696;10.358;2022-12-24T00:04:53;99968.03;;;7.28;100.00
74524;BME280;63074;44.696;10.358;2022-12-24T00:07:19;99988.47;;;7.16;100.00
74524;BME280;63074;44.696;10.358;2022-12-24T00:09:51;100000.25;;;7.39;100.00
74524;BME280;63074;44.696;10.358;2022-12-24T00:12:20;100001.72;;;7.29;100.00
74524;BME280;63074;44.696;10.358;2022-12-24T00:14:46;100012.84;;;7.57;100.00
74524;BME280;63074;44.696;10.358;2022-12-24T00:17:12;100009.03;;;7.47;100.00
74524;BME280;63074;44.696;10.358;2022-12-24T00:19:39;99997.00;;;7.31;100.00
74524;BME280;63074;44.696;10.358;2022-12-24T00:22:05;99992.13;;;7.21;100.00
74524;BME280;63074;44.696;10.358;2022-12-24T00:24:31;100004.72;;;7.14;100.00
74524;BME280;63074;44.696;10.358;2022-12-24T00:26:58;100003.91;;;7.14;100.00
74524;BME280;63074;44.696;10.358;2022-12-24T00:29:24;99991.97;;;7.48;100.00
74524;BME280;63074;44.696;10.358;2022-12-24T00:31:50;100003.78;;;7.33;100.00
74524;BME280;63074;44.696;10.358;2022-12-24T00:34:16;100021.25;;;7.29;100.00
74524;BME280;63074;44.696;10.358;2022-12-24T00:36:42;100000.53;;;7.25;100.00
74524;BME280;63074;44.696;10.358;2022-12-24T00:39:09;99996.28;;;7.49;100.00
74524;BME280;63074;44.696;10.358;2022-12-24T00:41:35;99987.59;;;7.53;100.00
74524;BME280;63074;44.696;10.358;2022-12-24T00:44:03;99996.06;;;7.50;100.00
74524;BME280;63074;44.696;10.358;2022-12-24T00:46:36;99998.84;;;7.62;100.00
74524;BME280;63074;44.696;10.358;2022-12-24T00:49:03;99998.78;;;7.68;100.00
74524;BME280;63074;44.696;10.358;2022-12-24T00:51:30;100013.69;;;7.83;100.00
74524;BME280;63074;44.696;10.358;2022-12-24T00:53:57;100014.28;;;7.85;100.00
74524;BME280;63074;44.696;10.358;2022-12-24T00:56:31;100005.06;;;7.80;100.00
74524;BME280;63074;44.696;10.358;2022-12-24T00:58:58;100007.91;;;7.86;100.00
74524;BME280;63074;44.696;10.358;2022-12-24T01:01:25;100013.47;;;7.84;100.00
74524;BME280;63074;44.696;10.358;2022-12-24T01:03:51;99991.63;;;7.87;100.00
74524;BME280;63074;44.696;10.358;2022-12-24T01:06:38;99966.06;;;7.73;100.00
74524;BME280;63074;44.696;10.358;2022-12-24T01:09:04;99979.50;;;7.60;100.00
74524;BME280;63074;44.696;10.358;2022-12-24T01:11:30;99973.63;;;7.76;100.00
74524;BME280;63074;44.696;10.358;2022-12-24T01:13:57;99994.81;;;7.77;100.00
74524;BME280;63074;44.696;10.358;2022-12-24T01:16:24;100018.09;;;7.77;100.00
74524;BME280;63074;44.696;10.358;2022-12-24T01:18:50;100026.31;;;7.75;100.00
74524;BME280;63074;44.696;10.358;2022-12-24T01:21:16;100044.22;;;7.75;100.00
74524;BME280;63074;44.696;10.358;2022-12-24T01:23:43;100055.66;;;7.82;100.00
74524;BME280;63074;44.696;10.358;2022-12-24T01:26:09;100060.81;;;7.84;100.00
74524;BME280;63074;44.696;10.358;2022-12-24T01:28:37;100066.38;;;7.82;100.00
74524;BME280;63074;44.696;10.358;2022-12-24T01:31:17;100062.44;;;7.85;100.00
74524;BME280;63074;44.696;10.358;2022-12-24T01:33:45;100068.41;;;7.87;100.00
74524;BME280;63074;44.696;10.358;2022-12-24T01:36:14;100082.91;;;7.41;100.00
74524;BME280;63074;44.696;10.358;2022-12-24T01:38:40;100096.28;;;7.72;100.00
74524;BME280;63074;44.696;10.358;2022-12-24T01:41:12;100080.56;;;7.83;100.00
74524;BME280;63074;44.696;10.358;2022-12-24T01:43:57;100084.88;;;7.84;100.00
74524;BME280;63074;44.696;10.358;2022-12-24T01:46:29;100083.63;;;7.86;100.00
74524;BME280;63074;44.696;10.358;2022-12-24T01:49:02;100099.28;;;7.83;100.00
74524;BME280;63074;44.696;10.358;2022-12-24T01:51:33;100119.63;;;7.90;100.00
74524;BME280;63074;44.696;10.358;2022-12-24T01:54:22;100140.00;;;7.91;100.00
74524;BME280;63074;44.696;10.358;2022-12-24T01:57:04;100123.13;;;7.91;100.00
74524;BME280;63074;44.696;10.358;2022-12-24T01:59:34;100104.19;;;7.92;100.00
74524;BME280;63074;44.696;10.358;2022-12-24T02:02:01;100094.03;;;8.01;100.00
74524;BME280;63074;44.696;10.358;2022-12-24T02:04:54;100091.41;;;7.94;100.00
74524;BME280;63074;44.696;10.358;2022-12-24T02:07:17;100074.75;;;7.92;100.00
74524;BME280;63074;44.696;10.358;2022-12-24T02:09:44;100072.72;;;7.88;100.00
74524;BME280;63074;44.696;10.358;2022-12-24T02:12:12;100072.72;;;7.88;100.00
74524;BME280;63074;44.696;10.358;2022-12-24T02:14:39;100069.41;;;7.92;100.00
74524;BME280;63074;44.696;10.358;2022-12-24T02:17:17;100070.16;;;7.74;100.00
74524;BME280;63074;44.696;10.358;2022-12-24T02:22:27;100087.84;;;7.75;100.00
74524;BME280;63074;44.696;10.358;2022-12-24T02:30:14;100093.09;;;7.89;100.00
74524;BME280;63074;44.696;10.358;2022-12-24T02:35:18;100098.41;;;7.95;100.00
74524;BME280;63074;44.696;10.358;2022-12-24T02:37:51;100097.09;;;7.79;100.00
74524;BME280;63074;44.696;10.358;2022-12-24T02:40:26;100091.06;;;7.84;100.00
74524;BME280;63074;44.696;10.358;2022-12-24T02:42:57;100099.25;;;7.89;100.00
74524;BME280;63074;44.696;10.358;2022-12-24T02:45:28;100102.44;;;7.79;100.00
74524;BME280;63074;44.696;10.358;2022-12-24T02:47:57;100084.34;;;7.75;100.00
74524;BME280;63074;44.696;10.358;2022-12-24T02:50:24;100084.28;;;7.82;100.00
74524;BME280;63074;44.696;10.358;2022-12-24T02:52:51;100082.13;;;7.65;100.00
74524;BME280;63074;44.696;10.358;2022-12-24T02:55:27;100087.31;;;7.60;100.00
74524;BME280;63074;44.696;10.358;2022-12-24T03:01:38;100059.09;;;7.64;100.00
74524;BME280;63074;44.696;10.358;2022-12-24T03:07:42;100058.09;;;7.59;100.00
74524;BME280;63074;44.696;10.358;2022-12-24T03:10:31;100051.41;;;7.50;100.00
74524;BME280;63074;44.696;10.358;2022-12-24T03:13:12;100050.91;;;7.59;100.00
74524;BME280;63074;44.696;10.358;2022-12-24T03:15:40;100050.88;;;7.66;100.00
74524;BME280;63074;44.696;10.358;2022-12-24T03:18:09;100054.16;;;7.68;100.00
74524;BME280;63074;44.696;10.358;2022-12-24T03:20:47;100070.97;;;7.75;100.00
74524;BME280;63074;44.696;10.358;2022-12-24T03:23:16;100087.16;;;7.80;100.00
74524;BME280;63074;44.696;10.358;2022-12-24T03:25:44;100077.81;;;7.96;100.00
74524;BME280;63074;44.696;10.358;2022-12-24T03:28:13;100067.50;;;7.99;100.00
74524;BME280;63074;44.696;10.358;2022-12-24T03:30:42;100067.88;;;8.03;100.00
74524;BME280;63074;44.696;10.358;2022-12-24T03:33:11;100043.97;;;8.08;100.00
74524;BME280;63074;44.696;10.358;2022-12-24T03:35:39;100047.78;;;7.94;100.00
74524;BME280;63074;44.696;10.358;2022-12-24T03:38:05;100034.34;;;8.00;100.00
74524;BME280;63074;44.696;10.358;2022-12-24T03:40:32;100014.66;;;8.13;100.00
74524;BME280;63074;44.696;10.358;2022-12-24T03:42:58;100018.06;;;8.02;100.00
74524;BME280;63074;44.696;10.358;2022-12-24T03:45:25;100027.75;;;8.03;100.00
74524;BME280;63074;44.696;10.358;2022-12-24T03:47:51;100050.03;;;7.97;100.00
74524;BME280;63074;44.696;10.358;2022-12-24T03:50:17;100054.13;;;7.99;100.00
74524;BME280;63074;44.696;10.358;2022-12-24T03:52:44;100061.94;;;8.01;100.00
74524;BME280;63074;44.696;10.358;2022-12-24T03:55:10;100061.53;;;8.22;100.00
74524;BME280;63074;44.696;10.358;2022-12-24T03:57:36;100046.34;;;8.16;100.00
74524;BME280;63074;44.696;10.358;2022-12-24T04:00:05;100030.22;;;8.23;100.00
74524;BME280;63074;44.696;10.358;2022-12-24T04:02:31;100013.72;;;8.26;100.00
74524;BME280;63074;44.696;10.358;2022-12-24T04:04:57;100020.34;;;8.23;100.00
74524;BME280;63074;44.696;10.358;2022-12-24T04:07:24;100032.31;;;8.21;100.00
74524;BME280;63074;44.696;10.358;2022-12-24T04:09:50;100042.47;;;8.12;100.00
74524;BME280;63074;44.696;10.358;2022-12-24T04:12:16;100045.13;;;8.12;100.00
74524;BME280;63074;44.696;10.358;2022-12-24T04:14:42;100040.13;;;8.22;100.00
74524;BME280;63074;44.696;10.358;2022-12-24T04:17:09;100028.97;;;8.25;100.00
74524;BME280;63074;44.696;10.358;2022-12-24T04:19:35;100033.06;;;8.28;100.00
74524;BME280;63074;44.696;10.358;2022-12-24T04:22:01;100031.81;;;8.30;100.00
74524;BME280;63074;44.696;10.358;2022-12-24T04:24:28;100026.56;;;8.17;100.00
74524;BME280;63074;44.696;10.358;2022-12-24T04:26:54;100012.41;;;8.10;100.00
74524;BME280;63074;44.696;10.358;2022-12-24T04:29:20;100020.41;;;8.17;100.00
74524;BME280;63074;44.696;10.358;2022-12-24T04:31:48;100009.16;;;8.33;100.00
74524;BME280;63074;44.696;10.358;2022-12-24T04:34:14;99994.97;;;8.32;100.00
74524;BME280;63074;44.696;10.358;2022-12-24T04:36:40;99987.75;;;8.33;100.00
74524;BME280;63074;44.696;10.358;2022-12-24T04:39:06;99996.28;;;8.41;100.00
74524;BME280;63074;44.696;10.358;2022-12-24T04:41:33;100003.19;;;8.31;100.00
74524;BME280;63074;44.696;10.358;2022-12-24T04:43:59;99996.44;;;8.46;100.00
74524;BME280;63074;44.696;10.358;2022-12-24T04:46:28;99993.59;;;8.41;100.00
74524;BME280;63074;44.696;10.358;2022-12-24T04:48:57;100002.84;;;8.45;100.00
74524;BME280;63074;44.696;10.358;2022-12-24T04:51:25;100000.47;;;8.56;100.00
74524;BME280;63074;44.696;10.358;2022-12-24T04:53:52;99996.09;;;8.18;100.00
74524;BME280;63074;44.696;10.358;2022-12-24T04:56:25;100003.84;;;8.26;100.00
74524;BME280;63074;44.696;10.358;2022-12-24T04:58:53;100018.91;;;8.02;100.00
74524;BME280;63074;44.696;10.358;2022-12-24T05:01:27;100016.09;;;7.66;100.00
74524;BME280;63074;44.696;10.358;2022-12-24T05:03:54;100013.53;;;8.02;100.00
74524;BME280;63074;44.696;10.358;2022-12-24T05:06:24;100005.06;;;8.05;100.00
74524;BME280;63074;44.696;10.358;2022-12-24T05:08:53;99994.28;;;8.12;100.00
74524;BME280;63074;44.696;10.358;2022-12-24T05:11:21;99990.06;;;8.04;100.00
74524;BME280;63074;44.696;10.358;2022-12-24T05:13:47;99982.31;;;8.14;100.00
74524;BME280;63074;44.696;10.358;2022-12-24T05:16:15;99996.53;;;8.15;100.00
74524;BME280;63074;44.696;10.358;2022-12-24T05:18:42;100000.03;;;8.16;100.00
74524;BME280;63074;44.696;10.358;2022-12-24T05:21:18;99981.81;;;8.24;100.00
74524;BME280;63074;44.696;10.358;2022-12-24T05:23:45;99982.25;;;8.03;100.00
74524;BME280;63074;44.696;10.358;2022-12-24T05:29:03;99978.38;;;8.17;100.00
74524;BME280;63074;44.696;10.358;2022-12-24T05:31:32;99979.88;;;8.13;100.00
74524;BME280;63074;44.696;10.358;2022-12-24T05:34:00;99995.34;;;7.86;100.00
74524;BME280;63074;44.696;10.358;2022-12-24T05:36:28;99982.53;;;8.13;100.00
74524;BME280;63074;44.696;10.358;2022-12-24T05:38:54;99990.72;;;8.18;100.00
74524;BME280;63074;44.696;10.358;2022-12-24T05:41:20;99985.16;;;8.20;100.00
74524;BME280;63074;44.696;10.358;2022-12-24T05:43:51;100013.72;;;8.07;100.00
74524;BME280;63074;44.696;10.358;2022-12-24T05:46:19;100012.78;;;7.70;100.00
74524;BME280;63074;44.696;10.358;2022-12-24T05:48:46;100020.28;;;7.55;100.00
74524;BME280;63074;44.696;10.358;2022-12-24T05:51:14;100035.22;;;7.38;100.00
74524;BME280;63074;44.696;10.358;2022-12-24T05:53:45;100043.13;;;7.51;100.00
74524;BME280;63074;44.696;10.358;2022-12-24T05:56:15;100052.31;;;7.62;100.00
74524;BME280;63074;44.696;10.358;2022-12-24T05:58:42;100062.91;;;7.50;100.00
74524;BME280;63074;44.696;10.358;2022-12-24T06:01:09;100074.88;;;7.79;100.00
74524;BME280;63074;44.696;10.358;2022-12-24T06:03:36;100061.13;;;7.69;100.00
74524;BME280;63074;44.696;10.358;2022-12-24T06:06:10;100062.88;;;7.82;100.00
74524;BME280;63074;44.696;10.358;2022-12-24T06:08:37;100083.00;;;7.91;100.00
74524;BME280;63074;44.696;10.358;2022-12-24T06:11:07;100086.31;;;7.86;100.00
74524;BME280;63074;44.696;10.358;2022-12-24T06:13:34;100089.38;;;7.90;100.00
74524;BME280;63074;44.696;10.358;2022-12-24T06:16:02;100079.47;;;7.65;100.00
74524;BME280;63074;44.696;10.358;2022-12-24T06:18:29;100076.16;;;7.70;100.00
74524;BME280;63074;44.696;10.358;2022-12-24T06:20:57;100081.50;;;7.70;100.00
74524;BME280;63074;44.696;10.358;2022-12-24T06:23:24;100080.69;;;7.94;100.00
74524;BME280;63074;44.696;10.358;2022-12-24T06:25:51;100079.44;;;7.97;100.00
74524;BME280;63074;44.696;10.358;2022-12-24T06:28:18;100076.09;;;8.08;100.00
74524;BME280;63074;44.696;10.358;2022-12-24T06:30:49;100053.72;;;8.21;100.00
74524;BME280;63074;44.696;10.358;2022-12-24T06:33:16;100049.63;;;8.18;100.00
74524;BME280;63074;44.696;10.358;2022-12-24T06:35:44;100053.50;;;8.22;100.00
74524;BME280;63074;44.696;10.358;2022-12-24T06:38:11;100058.47;;;8.19;100.00
74524;BME280;63074;44.696;10.358;2022-12-24T06:40:38;100058.41;;;8.25;100.00
74524;BME280;63074;44.696;10.358;2022-12-24T06:43:07;100069.56;;;8.22;100.00
74524;BME280;63074;44.696;10.358;2022-12-24T06:45:33;100092.41;;;8.25;100.00
74524;BME280;63074;44.696;10.358;2022-12-24T06:48:01;100082.91;;;8.29;100.00
74524;BME280;63074;44.696;10.358;2022-12-24T06:50:28;100085.56;;;8.35;100.00
74524;BME280;63074;44.696;10.358;2022-12-24T06:52:55;100085.56;;;8.29;100.00
74524;BME280;63074;44.696;10.358;2022-12-24T06:55:23;100088.69;;;8.26;100.00
74524;BME280;63074;44.696;10.358;2022-12-24T06:57:49;100094.22;;;8.31;100.00
74524;BME280;63074;44.696;10.358;2022-12-24T07:00:16;100092.19;;;8.26;100.00
74524;BME280;63074;44.696;10.358;2022-12-24T07:02:43;100089.28;;;8.28;100.00
74524;BME280;63074;44.696;10.358;2022-12-24T07:05:11;100084.81;;;8.22;100.00
74524;BME280;63074;44.696;10.358;2022-12-24T07:07:40;100089.16;;;8.16;100.00
74524;BME280;63074;44.696;10.358;2022-12-24T07:10:11;100084.63;;;8.17;100.00
74524;BME280;63074;44.696;10.358;2022-12-24T07:12:39;100086.06;;;8.19;100.00
74524;BME280;63074;44.696;10.358;2022-12-24T07:15:05;100066.63;;;8.05;100.00
74524;BME280;63074;44.696;10.358;2022-12-24T07:17:32;100073.53;;;8.13;100.00
74524;BME280;63074;44.696;10.358;2022-12-24T07:19:58;100078.41;;;7.98;100.00
74524;BME280;63074;44.696;10.358;2022-12-24T07:22:24;100090.34;;;7.70;100.00
74524;BME280;63074;44.696;10.358;2022-12-24T07:24:50;100106.25;;;7.90;100.00
74524;BME280;63074;44.696;10.358;2022-12-24T07:27:16;100107.53;;;7.81;100.00
74524;BME280;63074;44.696;10.358;2022-12-24T07:29:43;100112.38;;;7.97;100.00
74524;BME280;63074;44.696;10.358;2022-12-24T07:32:09;100096.59;;;7.89;100.00
74524;BME280;63074;44.696;10.358;2022-12-24T07:34:36;100083.41;;;7.88;100.00
74524;BME280;63074;44.696;10.358;2022-12-24T07:37:02;100077.44;;;7.92;100.00
74524;BME280;63074;44.696;10.358;2022-12-24T07:39:28;100072.75;;;7.81;100.00
74524;BME280;63074;44.696;10.358;2022-12-24T07:41:54;100077.78;;;8.02;100.00
74524;BME280;63074;44.696;10.358;2022-12-24T07:44:20;100086.44;;;8.23;100.00
74524;BME280;63074;44.696;10.358;2022-12-24T07:46:47;100093.22;;;8.25;100.00
74524;BME280;63074;44.696;10.358;2022-12-24T07:49:14;100087.22;;;8.05;100.00
74524;BME280;63074;44.696;10.358;2022-12-24T07:51:40;100079.06;;;8.18;100.00
74524;BME280;63074;44.696;10.358;2022-12-24T07:54:06;100073.88;;;8.23;100.00
74524;BME280;63074;44.696;10.358;2022-12-24T07:56:33;100063.16;;;8.23;100.00
74524;BME280;63074;44.696;10.358;2022-12-24T07:59:00;100064.13;;;8.35;100.00
74524;BME280;63074;44.696;10.358;2022-12-24T08:01:26;100075.41;;;8.37;100.00
74524;BME280;63074;44.696;10.358;2022-12-24T08:03:52;100069.72;;;8.70;100.00
74524;BME280;63074;44.696;10.358;2022-12-24T08:06:20;100070.03;;;8.80;100.00
74524;BME280;63074;44.696;10.358;2022-12-24T08:08:46;100074.03;;;8.71;100.00
74524;BME280;63074;44.696;10.358;2022-12-24T08:11:14;100079.28;;;8.85;100.00
74524;BME280;63074;44.696;10.358;2022-12-24T08:13:40;100101.06;;;8.70;100.00
74524;BME280;63074;44.696;10.358;2022-12-24T08:16:07;100134.06;;;8.45;100.00
74524;BME280;63074;44.696;10.358;2022-12-24T08:18:34;100135.75;;;8.40;100.00
74524;BME280;63074;44.696;10.358;2022-12-24T08:21:00;100149.28;;;8.20;100.00
74524;BME280;63074;44.696;10.358;2022-12-24T08:23:26;100147.16;;;7.97;100.00
74524;BME280;63074;44.696;10.358;2022-12-24T08:25:53;100164.69;;;7.93;100.00
74524;BME280;63074;44.696;10.358;2022-12-24T08:28:22;100166.75;;;7.91;100.00
74524;BME280;63074;44.696;10.358;2022-12-24T08:30:49;100167.44;;;8.11;100.00
74524;BME280;63074;44.696;10.358;2022-12-24T08:33:17;100156.03;;;8.23;100.00
74524;BME280;63074;44.696;10.358;2022-12-24T08:35:51;100152.63;;;8.09;100.00
74524;BME280;63074;44.696;10.358;2022-12-24T08:38:18;100167.00;;;8.14;100.00
74524;BME280;63074;44.696;10.358;2022-12-24T08:40:45;100176.03;;;8.20;100.00
74524;BME280;63074;44.696;10.358;2022-12-24T08:43:14;100180.13;;;7.91;100.00
74524;BME280;63074;44.696;10.358;2022-12-24T08:45:41;100194.75;;;7.89;100.00
74524;BME280;63074;44.696;10.358;2022-12-24T08:48:08;100190.16;;;8.02;100.00
74524;BME280;63074;44.696;10.358;2022-12-24T08:50:37;100199.56;;;8.11;100.00
74524;BME280;63074;44.696;10.358;2022-12-24T08:53:03;100198.19;;;8.02;100.00
74524;BME280;63074;44.696;10.358;2022-12-24T08:55:30;100187.84;;;8.44;100.00
74524;BME280;63074;44.696;10.358;2022-12-24T08:57:57;100186.56;;;8.46;100.00
74524;BME280;63074;44.696;10.358;2022-12-24T09:00:23;100184.94;;;8.45;100.00
74524;BME280;63074;44.696;10.358;2022-12-24T09:02:49;100184.59;;;8.04;100.00
74524;BME280;63074;44.696;10.358;2022-12-24T09:05:15;100198.53;;;8.44;100.00
74524;BME280;63074;44.696;10.358;2022-12-24T09:07:43;100197.50;;;8.70;100.00
74524;BME280;63074;44.696;10.358;2022-12-24T09:10:10;100199.00;;;8.66;100.00
74524;BME280;63074;44.696;10.358;2022-12-24T09:12:37;100197.34;;;8.90;100.00
74524;BME280;63074;44.696;10.358;2022-12-24T09:15:03;100202.78;;;9.01;100.00
74524;BME280;63074;44.696;10.358;2022-12-24T09:17:33;100206.28;;;9.02;100.00
74524;BME280;63074;44.696;10.358;2022-12-24T09:19:59;100205.47;;;9.01;100.00
74524;BME280;63074;44.696;10.358;2022-12-24T09:22:25;100218.78;;;8.90;100.00
74524;BME280;63074;44.696;10.358;2022-12-24T09:24:55;100222.31;;;9.08;100.00
74524;BME280;63074;44.696;10.358;2022-12-24T09:27:22;100238.00;;;9.05;100.00
74524;BME280;63074;44.696;10.358;2022-12-24T09:29:48;100234.31;;;8.81;100.00
74524;BME280;63074;44.696;10.358;2022-12-24T09:32:14;100244.22;;;8.80;100.00
74524;BME280;63074;44.696;10.358;2022-12-24T09:34:40;100250.03;;;8.96;100.00
74524;BME280;63074;44.696;10.358;2022-12-24T09:37:07;100245.13;;;9.18;100.00
74524;BME280;63074;44.696;10.358;2022-12-24T09:39:34;100230.66;;;9.19;100.00
74524;BME280;63074;44.696;10.358;2022-12-24T09:42:27;100214.88;;;9.10;100.00
74524;BME280;63074;44.696;10.358;2022-12-24T09:45:39;100202.88;;;9.13;100.00
74524;BME280;63074;44.696;10.358;2022-12-24T09:48:16;100203.38;;;9.03;100.00
74524;BME280;63074;44.696;10.358;2022-12-24T09:53:34;100186.66;;;9.44;100.00
74524;BME280;63074;44.696;10.358;2022-12-24T09:56:08;100183.97;;;9.44;100.00
74524;BME280;63074;44.696;10.358;2022-12-24T09:58:44;100200.00;;;9.51;100.00
74524;BME280;63074;44.696;10.358;2022-12-24T10:01:27;100207.13;;;9.57;100.00
74524;BME280;63074;44.696;10.358;2022-12-24T10:03:55;100194.91;;;9.43;100.00
74524;BME280;63074;44.696;10.358;2022-12-24T10:06:26;100204.81;;;9.24;100.00
74524;BME280;63074;44.696;10.358;2022-12-24T10:15:14;100214.94;;;9.59;100.00
74524;BME280;63074;44.696;10.358;2022-12-24T10:18:18;100220.91;;;9.61;100.00
74524;BME280;63074;44.696;10.358;2022-12-24T10:23:48;100217.03;;;9.75;100.00
74524;BME280;63074;44.696;10.358;2022-12-24T10:26:26;100218.97;;;9.68;100.00
74524;BME280;63074;44.696;10.358;2022-12-24T10:29:00;100229.25;;;9.71;100.00
74524;BME280;63074;44.696;10.358;2022-12-24T10:31:31;100221.50;;;9.81;100.00
74524;BME280;63074;44.696;10.358;2022-12-24T10:34:13;100222.16;;;9.76;100.00
74524;BME280;63074;44.696;10.358;2022-12-24T10:36:40;100221.84;;;9.85;100.00
74524;BME280;63074;44.696;10.358;2022-12-24T10:39:18;100222.28;;;10.00;100.00
74524;BME280;63074;44.696;10.358;2022-12-24T10:43:38;100241.84;;;10.48;100.00
74524;BME280;63074;44.696;10.358;2022-12-24T10:46:21;100221.38;;;10.18;100.00
74524;BME280;63074;44.696;10.358;2022-12-24T10:49:07;100219.13;;;10.03;100.00
74524;BME280;63074;44.696;10.358;2022-12-24T10:51:59;100199.28;;;10.04;100.00
74524;BME280;63074;44.696;10.358;2022-12-24T10:54:29;100196.25;;;10.12;100.00
74524;BME280;63074;44.696;10.358;2022-12-24T10:57:18;100204.81;;;10.09;100.00
74524;BME280;63074;44.696;10.358;2022-12-24T10:59:52;100205.28;;;10.18;100.00
74524;BME280;63074;44.696;10.358;2022-12-24T11:02:32;100200.22;;;10.28;100.00
74524;BME280;63074;44.696;10.358;2022-12-24T11:05:05;100203.81;;;10.22;100.00
74524;BME280;63074;44.696;10.358;2022-12-24T11:07:33;100204.00;;;10.08;100.00
74524;BME280;63074;44.696;10.358;2022-12-24T11:10:05;100204.84;;;10.21;100.00
74524;BME280;63074;44.696;10.358;2022-12-24T11:12:39;100204.16;;;10.25;100.00
74524;BME280;63074;44.696;10.358;2022-12-24T11:15:21;100204.22;;;10.07;100.00
74524;BME280;63074;44.696;10.358;2022-12-24T11:18:04;100207.78;;;10.19;100.00
74524;BME280;63074;44.696;10.358;2022-12-24T11:20:33;100208.94;;;10.23;100.00
74524;BME280;63074;44.696;10.358;2022-12-24T11:23:17;100223.47;;;10.15;100.00
74524;BME280;63074;44.696;10.358;2022-12-24T11:25:48;100223.47;;;10.15;100.00
74524;BME280;63074;44.696;10.358;2022-12-24T11:28:27;100214.31;;;10.23;100.00
74524;BME280;63074;44.696;10.358;2022-12-24T11:31:19;100205.25;;;10.36;100.00
74524;BME280;63074;44.696;10.358;2022-12-24T11:33:50;100207.81;;;10.12;100.00
74524;BME280;63074;44.696;10.358;2022-12-24T11:36:21;100210.44;;;10.19;100.00
74524;BME280;63074;44.696;10.358;2022-12-24T11:38:56;100200.81;;;10.30;100.00
74524;BME280;63074;44.696;10.358;2022-12-24T11:41:23;100189.75;;;10.38;100.00
74524;BME280;63074;44.696;10.358;2022-12-24T11:43:58;100182.13;;;10.46;100.00
74524;BME280;63074;44.696;10.358;2022-12-24T11:46:35;100179.59;;;10.52;100.00
74524;BME280;63074;44.696;10.358;2022-12-24T11:51:41;100173.94;;;10.41;100.00
74524;BME280;63074;44.696;10.358;2022-12-24T11:54:24;100180.97;;;10.42;100.00
74524;BME280;63074;44.696;10.358;2022-12-24T11:56:54;100193.09;;;10.33;100.00
74524;BME280;63074;44.696;10.358;2022-12-24T11:59:34;100207.69;;;10.26;100.00
74524;BME280;63074;44.696;10.358;2022-12-24T12:04:45;100197.78;;;9.78;100.00
74524;BME280;63074;44.696;10.358;2022-12-24T12:07:17;100202.81;;;9.86;100.00
74524;BME280;63074;44.696;10.358;2022-12-24T12:09:49;100206.34;;;9.87;100.00
74524;BME280;63074;44.696;10.358;2022-12-24T12:12:21;100216.75;;;9.95;100.00
74524;BME280;63074;44.696;10.358;2022-12-24T12:14:56;100217.41;;;9.78;100.00
74524;BME280;63074;44.696;10.358;2022-12-24T12:17:48;100208.84;;;10.00;100.00
74524;BME280;63074;44.696;10.358;2022-12-24T12:25:37;100198.16;;;9.81;100.00
74524;BME280;63074;44.696;10.358;2022-12-24T12:36:45;100194.38;;;9.71;100.00
74524;BME280;63074;44.696;10.358;2022-12-24T12:39:12;100192.50;;;9.71;100.00
74524;BME280;63074;44.696;10.358;2022-12-24T12:55:25;100259.97;;;9.75;100.00
74524;BME280;63074;44.696;10.358;2022-12-24T12:57:56;100267.56;;;9.60;100.00
74524;BME280;63074;44.696;10.358;2022-12-24T13:00:25;100263.44;;;9.57;100.00
74524;BME280;63074;44.696;10.358;2022-12-24T13:20:28;100240.28;;;9.63;100.00
74524;BME280;63074;44.696;10.358;2022-12-24T13:22:57;100256.84;;;9.78;100.00
74524;BME280;63074;44.696;10.358;2022-12-24T13:25:37;100261.31;;;9.66;100.00
74524;BME280;63074;44.696;10.358;2022-12-24T13:36:13;100274.13;;;9.64;100.00
74524;BME280;63074;44.696;10.358;2022-12-24T13:49:32;100264.59;;;10.16;100.00
74524;BME280;63074;44.696;10.358;2022-12-24T13:57:30;100262.59;;;10.30;100.00
74524;BME280;63074;44.696;10.358;2022-12-24T14:00:50;100262.00;;;10.28;100.00
74524;BME280;63074;44.696;10.358;2022-12-24T14:08:08;100247.66;;;10.15;100.00
74524;BME280;63074;44.696;10.358;2022-12-24T14:10:39;100253.28;;;9.96;100.00
74524;BME280;63074;44.696;10.358;2022-12-24T14:18:41;100257.31;;;10.05;100.00
74524;BME280;63074;44.696;10.358;2022-12-24T14:21:41;100261.19;;;10.09;100.00
74524;BME280;63074;44.696;10.358;2022-12-24T14:24:22;100264.81;;;10.14;100.00
74524;BME280;63074;44.696;10.358;2022-12-24T14:27:28;100261.75;;;10.11;100.00
74524;BME280;63074;44.696;10.358;2022-12-24T14:29:59;100266.34;;;10.10;100.00
74524;BME280;63074;44.696;10.358;2022-12-24T14:32:34;100266.78;;;9.89;100.00
74524;BME280;63074;44.696;10.358;2022-12-24T14:35:23;100267.69;;;10.01;100.00
74524;BME280;63074;44.696;10.358;2022-12-24T14:38:03;100273.34;;;9.93;100.00
74524;BME280;63074;44.696;10.358;2022-12-24T14:40:31;100269.78;;;9.99;100.00
74524;BME280;63074;44.696;10.358;2022-12-24T14:45:48;100279.47;;;10.00;100.00
74524;BME280;63074;44.696;10.358;2022-12-24T14:48:30;100280.28;;;10.01;100.00
74524;BME280;63074;44.696;10.358;2022-12-24T14:56:22;100290.72;;;9.91;100.00
74524;BME280;63074;44.696;10.358;2022-12-24T14:58:48;100302.00;;;9.81;100.00
74524;BME280;63074;44.696;10.358;2022-12-24T15:07:03;100313.41;;;9.76;100.00
74524;BME280;63074;44.696;10.358;2022-12-24T15:09:32;100315.19;;;9.82;100.00
74524;BME280;63074;44.696;10.358;2022-12-24T15:12:01;100314.84;;;9.79;100.00